createdAt,value
2022-12-13T00:01:45.148Z,100.00
2022-12-13T00:05:47.974Z,100.00
2022-12-13T00:09:50.715Z,100.00
2022-12-13T00:13:55.720Z,100.00
2022-12-13T00:17:58.435Z,100.00
2022-12-13T00:22:01.124Z,100.00
2022-12-13T00:26:05.294Z,100.00
2022-12-13T00:30:10.340Z,100.00
2022-12-13T00:34:13.036Z,100.00
2022-12-13T00:38:15.748Z,100.00
2022-12-13T00:42:18.458Z,100.00
2022-12-13T00:46:23.383Z,100.00
2022-12-13T00:50:26.196Z,100.00
2022-12-13T00:54:28.912Z,100.00
2022-12-13T00:58:31.841Z,100.00
2022-12-13T01:02:35.947Z,100.00
2022-12-13T01:06:40.405Z,100.00
2022-12-13T01:10:45.041Z,100.00
2022-12-13T01:14:53.068Z,100.00
2022-12-13T01:19:00.034Z,99.99
2022-12-13T01:23:02.799Z,99.63
2022-12-13T01:27:05.961Z,99.62
2022-12-13T01:31:10.318Z,100.00
2022-12-13T01:35:14.742Z,100.00
2022-12-13T01:39:20.598Z,100.00
2022-12-13T01:43:50.415Z,100.00
2022-12-13T01:47:56.661Z,99.45
2022-12-13T01:52:07.624Z,99.79
2022-12-13T01:56:14.611Z,99.56
2022-12-13T02:00:18.886Z,99.13
2022-12-13T02:04:29.466Z,99.88
2022-12-13T02:08:35.832Z,99.51
2022-12-13T02:12:41.867Z,99.86
2022-12-13T02:16:55.612Z,99.72
2022-12-13T02:21:18.773Z,99.84
2022-12-13T02:25:45.318Z,99.39
2022-12-13T02:30:27.108Z,99.81
2022-12-13T02:34:37.629Z,99.19
2022-12-13T02:38:50.165Z,99.54
2022-12-13T02:42:59.750Z,98.98
2022-12-13T02:47:06.661Z,98.94
2022-12-13T02:51:18.597Z,98.77
2022-12-13T02:55:27.808Z,99.15
2022-12-13T02:59:35.352Z,98.96
2022-12-13T03:03:48.962Z,98.52
2022-12-13T03:08:01.776Z,98.81
2022-12-13T03:12:32.050Z,98.28
2022-12-13T03:16:40.445Z,97.77
2022-12-13T03:20:48.442Z,97.76
2022-12-13T03:24:52.972Z,97.68
2022-12-13T03:28:56.195Z,97.42
2022-12-13T03:32:58.919Z,97.39
2022-12-13T03:37:01.655Z,98.19
2022-12-13T03:41:08.544Z,97.97
2022-12-13T03:45:11.738Z,98.03
2022-12-13T03:49:17.270Z,97.74
2022-12-13T03:53:22.662Z,97.95
2022-12-13T03:57:37.131Z,98.08
2022-12-13T04:01:39.935Z,98.13
2022-12-13T04:05:43.516Z,98.37
2022-12-13T04:09:46.256Z,98.29
2022-12-13T04:13:50.312Z,97.80
2022-12-13T04:17:53.085Z,97.84
2022-12-13T04:21:56.025Z,97.91
2022-12-13T04:25:59.923Z,97.76
2022-12-13T04:30:04.682Z,97.87
2022-12-13T04:34:07.495Z,97.72
2022-12-13T04:38:10.279Z,97.83
2022-12-13T04:42:13.433Z,97.52
2022-12-13T04:46:17.532Z,97.37
2022-12-13T04:50:20.307Z,97.60
2022-12-13T04:54:24.023Z,97.71
2022-12-13T04:58:28.474Z,97.26
2022-12-13T05:02:32.980Z,97.09
2022-12-13T05:06:35.762Z,96.79
2022-12-13T05:10:38.687Z,96.38
2022-12-13T05:14:41.417Z,95.98
2022-12-13T05:18:45.563Z,95.98
2022-12-13T05:22:48.237Z,96.05
2022-12-13T05:26:51.575Z,96.77
2022-12-13T05:30:55.087Z,96.47
2022-12-13T05:34:59.210Z,96.51
2022-12-13T05:39:01.926Z,95.61
2022-12-13T05:43:04.725Z,95.90
2022-12-13T05:47:25.319Z,100.00
2022-12-13T05:51:29.491Z,98.62
2022-12-13T05:55:32.303Z,97.07
2022-12-13T05:59:35.045Z,96.26
2022-12-13T06:03:38.261Z,95.73
2022-12-13T06:07:43.591Z,95.58
2022-12-13T06:11:46.327Z,95.51
2022-12-13T06:15:49.071Z,95.45
2022-12-13T06:19:51.936Z,95.35
2022-12-13T06:23:56.085Z,95.53
2022-12-13T06:28:00.743Z,95.37
2022-12-13T06:32:04.992Z,95.89
2022-12-13T06:36:08.751Z,95.54
2022-12-13T06:40:14.534Z,95.67
2022-12-13T06:44:18.582Z,95.88
2022-12-13T06:48:21.325Z,96.19
2022-12-13T06:52:24.031Z,96.74
2022-12-13T06:56:28.106Z,96.50
2022-12-13T07:00:36.986Z,96.54
2022-12-13T07:04:43.665Z,95.62
2022-12-13T07:08:51.423Z,95.73
2022-12-13T07:12:55.489Z,96.12
2022-12-13T07:17:03.628Z,95.68
2022-12-13T07:21:07.515Z,95.37
2022-12-13T07:25:27.027Z,95.76
2022-12-13T07:29:32.822Z,96.04
2022-12-13T07:33:36.387Z,96.35
2022-12-13T07:37:39.125Z,96.56
2022-12-13T07:41:41.783Z,96.10
2022-12-13T07:45:46.293Z,96.06
2022-12-13T07:49:49.027Z,96.03
2022-12-13T07:53:51.785Z,96.10
2022-12-13T07:57:54.500Z,96.51
2022-12-13T08:01:58.659Z,96.57
2022-12-13T08:06:07.249Z,96.92
2022-12-13T08:10:10.338Z,96.50
2022-12-13T08:14:13.299Z,96.35
2022-12-13T08:18:17.413Z,96.36
2022-12-13T08:22:24.189Z,96.62
2022-12-13T08:26:27.086Z,96.59
2022-12-13T08:30:29.956Z,96.66
2022-12-13T08:34:34.094Z,96.62
2022-12-13T08:38:37.725Z,96.87
2022-12-13T08:42:40.483Z,97.34
2022-12-13T08:46:44.223Z,97.72
2022-12-13T08:50:48.325Z,97.75
2022-12-13T08:54:51.101Z,98.28
2022-12-13T08:58:53.840Z,98.18
2022-12-13T09:02:58.307Z,98.77
2022-12-13T09:07:03.075Z,98.99
2022-12-13T09:11:11.211Z,99.33
2022-12-13T09:15:23.496Z,99.68
2022-12-13T09:19:27.040Z,100.00
2022-12-13T09:23:31.187Z,100.00
2022-12-13T09:27:39.732Z,100.00
2022-12-13T09:31:43.880Z,100.00
2022-12-13T09:35:54.906Z,100.00
2022-12-13T09:39:59.035Z,100.00
2022-12-13T09:44:32.611Z,100.00
2022-12-13T09:48:48.345Z,100.00
2022-12-13T09:52:51.643Z,100.00
2022-12-13T09:56:57.539Z,100.00
2022-12-13T10:01:01.022Z,100.00
2022-12-13T10:05:22.783Z,100.00
2022-12-13T10:09:26.844Z,100.00
2022-12-13T10:13:41.574Z,100.00
2022-12-13T10:17:55.433Z,100.00
2022-12-13T10:22:01.601Z,100.00
2022-12-13T10:26:23.891Z,100.00
2022-12-13T10:30:29.498Z,100.00
2022-12-13T10:34:39.200Z,100.00
2022-12-13T10:38:44.164Z,100.00
2022-12-13T10:42:46.907Z,100.00
2022-12-13T10:46:54.073Z,100.00
2022-12-13T10:51:02.686Z,100.00
2022-12-13T10:55:22.995Z,100.00
2022-12-13T10:59:32.504Z,100.00
2022-12-13T11:03:36.847Z,100.00
2022-12-13T11:07:39.947Z,100.00
2022-12-13T11:11:44.233Z,100.00
2022-12-13T11:15:48.000Z,100.00
2022-12-13T11:19:55.383Z,100.00
2022-12-13T11:24:02.298Z,100.00
2022-12-13T11:28:26.863Z,100.00
2022-12-13T11:32:43.386Z,100.00
2022-12-13T11:36:52.946Z,100.00
2022-12-13T11:41:00.081Z,100.00
2022-12-13T11:45:13.537Z,100.00
2022-12-13T11:49:35.916Z,100.00
2022-12-13T11:53:50.717Z,100.00
2022-12-13T11:58:01.305Z,100.00
2022-12-13T12:02:16.855Z,100.00
2022-12-13T12:06:23.600Z,100.00
2022-12-13T12:10:33.214Z,100.00
2022-12-13T12:14:42.742Z,100.00
2022-12-13T12:18:45.571Z,100.00
2022-12-13T12:23:00.096Z,100.00
2022-12-13T12:27:25.823Z,100.00
2022-12-13T12:31:34.367Z,100.00
2022-12-13T12:36:03.314Z,100.00
2022-12-13T12:40:52.247Z,100.00
2022-12-13T12:45:27.089Z,100.00
2022-12-13T12:50:10.401Z,100.00
2022-12-13T12:54:39.981Z,100.00
2022-12-13T12:58:51.430Z,100.00
2022-12-13T13:03:01.798Z,100.00
2022-12-13T13:07:22.364Z,100.00
2022-12-13T13:11:29.845Z,100.00
2022-12-13T13:15:55.499Z,100.00
2022-12-13T13:20:17.603Z,100.00
2022-12-13T13:24:23.508Z,100.00
2022-12-13T13:28:26.458Z,100.00
2022-12-13T13:32:31.609Z,100.00
2022-12-13T13:36:52.536Z,100.00
2022-12-13T13:40:55.472Z,100.00
2022-12-13T13:45:22.424Z,100.00
2022-12-13T13:49:25.592Z,100.00
2022-12-13T13:54:22.344Z,100.00
2022-12-13T13:58:57.141Z,100.00
2022-12-13T14:03:47.538Z,100.00
2022-12-13T14:08:28.467Z,100.00
2022-12-13T14:13:11.020Z,100.00
2022-12-13T14:17:51.365Z,100.00
2022-12-13T14:22:23.580Z,100.00
2022-12-13T14:26:41.803Z,100.00
2022-12-13T14:30:47.956Z,100.00
2022-12-13T14:35:25.377Z,100.00
2022-12-13T14:39:30.989Z,100.00
2022-12-13T14:43:35.366Z,100.00
2022-12-13T14:47:41.462Z,100.00
2022-12-13T14:51:44.840Z,100.00
2022-12-13T14:56:04.515Z,100.00
2022-12-13T15:00:24.329Z,100.00
2022-12-13T15:04:30.323Z,100.00
2022-12-13T15:08:38.248Z,100.00
2022-12-13T15:12:43.960Z,100.00
2022-12-13T15:16:50.126Z,100.00
2022-12-13T15:20:55.202Z,100.00
2022-12-13T15:25:02.509Z,100.00
2022-12-13T15:29:12.104Z,100.00
2022-12-13T15:33:20.518Z,100.00
2022-12-13T15:37:29.771Z,100.00
2022-12-13T15:41:37.604Z,100.00
2022-12-13T15:45:46.495Z,100.00
2022-12-13T15:49:53.323Z,100.00
2022-12-13T15:54:08.251Z,100.00
2022-12-13T15:58:25.613Z,100.00
2022-12-13T16:02:30.127Z,100.00
2022-12-13T16:06:34.458Z,100.00
2022-12-13T16:10:37.495Z,100.00
2022-12-13T16:14:49.572Z,100.00
2022-12-13T16:18:56.747Z,100.00
2022-12-13T16:23:00.167Z,100.00
2022-12-13T16:27:12.107Z,100.00
2022-12-13T16:31:18.076Z,100.00
2022-12-13T16:35:22.874Z,100.00
2022-12-13T16:39:26.258Z,100.00
2022-12-13T16:43:34.281Z,100.00
2022-12-13T16:47:44.713Z,100.00
2022-12-13T16:51:53.323Z,100.00
2022-12-13T16:55:59.195Z,100.00
2022-12-13T17:00:02.556Z,100.00
2022-12-13T17:04:11.876Z,100.00
2022-12-13T17:08:19.907Z,100.00
2022-12-13T17:12:25.808Z,100.00
2022-12-13T17:16:34.977Z,100.00
2022-12-13T17:20:39.963Z,100.00
2022-12-13T17:24:45.312Z,100.00
2022-12-13T17:28:49.469Z,100.00
2022-12-13T17:32:54.630Z,100.00
2022-12-13T17:36:57.777Z,100.00
2022-12-13T17:41:02.038Z,100.00
2022-12-13T17:45:05.926Z,100.00
2022-12-13T17:49:09.104Z,100.00
2022-12-13T17:53:12.718Z,100.00
2022-12-13T17:57:17.376Z,100.00
2022-12-13T18:01:23.538Z,100.00
2022-12-13T18:05:26.913Z,100.00
2022-12-13T18:09:29.970Z,100.00
2022-12-13T18:13:34.243Z,100.00
2022-12-13T18:18:09.387Z,100.00
2022-12-13T18:22:01.753Z,100.00
2022-12-13T18:26:07.594Z,100.00
2022-12-13T18:30:13.358Z,100.00
2022-12-13T18:34:16.862Z,100.00
2022-12-13T18:38:19.588Z,100.00
2022-12-13T18:42:22.674Z,100.00
2022-12-13T18:46:27.756Z,100.00
2022-12-13T18:50:30.895Z,100.00
2022-12-13T18:54:33.912Z,100.00
2022-12-13T18:58:37.287Z,100.00
2022-12-13T19:02:42.141Z,100.00
2022-12-13T19:06:45.033Z,100.00
2022-12-13T19:10:48.963Z,100.00
2022-12-13T19:14:54.618Z,100.00
2022-12-13T19:19:00.007Z,100.00
2022-12-13T19:23:03.617Z,100.00
2022-12-13T19:27:07.077Z,100.00
2022-12-13T19:31:12.269Z,100.00
2022-12-13T19:35:17.967Z,100.00
2022-12-13T19:39:20.769Z,100.00
2022-12-13T19:43:24.781Z,100.00
2022-12-13T19:47:28.321Z,100.00
2022-12-13T19:51:39.528Z,100.00
2022-12-13T19:55:48.243Z,100.00
2022-12-13T19:59:51.641Z,100.00
2022-12-13T20:03:55.883Z,100.00
2022-12-13T20:08:00.238Z,100.00
2022-12-13T20:12:03.058Z,100.00
2022-12-13T20:16:07.294Z,100.00
2022-12-13T20:20:11.774Z,100.00
2022-12-13T20:24:16.586Z,100.00
2022-12-13T20:28:19.650Z,100.00
2022-12-13T20:32:22.696Z,100.00
2022-12-13T20:36:27.910Z,100.00
2022-12-13T20:40:32.182Z,100.00
2022-12-13T20:44:35.316Z,100.00
2022-12-13T20:48:41.426Z,100.00
2022-12-13T20:52:50.570Z,100.00
2022-12-13T20:56:55.923Z,100.00
2022-12-13T21:00:59.262Z,100.00
2022-12-13T21:05:03.528Z,100.00
2022-12-13T21:09:08.267Z,100.00
2022-12-13T21:13:12.412Z,100.00
2022-12-13T21:17:15.754Z,100.00
2022-12-13T21:21:19.763Z,100.00
2022-12-13T21:25:22.816Z,100.00
2022-12-13T21:29:27.782Z,100.00
2022-12-13T21:33:30.768Z,100.00
2022-12-13T21:37:33.610Z,100.00
2022-12-13T21:41:36.769Z,100.00
2022-12-13T21:45:41.595Z,100.00
2022-12-13T21:49:48.436Z,100.00
2022-12-13T21:53:53.929Z,100.00
2022-12-13T21:58:14.441Z,100.00
2022-12-13T22:02:20.167Z,100.00
2022-12-13T22:06:23.153Z,100.00
2022-12-13T22:10:26.142Z,100.00
2022-12-13T22:14:29.991Z,100.00
2022-12-13T22:18:34.103Z,100.00
2022-12-13T22:22:39.339Z,100.00
2022-12-13T22:26:42.258Z,100.00
2022-12-13T22:30:45.374Z,100.00
2022-12-13T22:34:49.907Z,100.00
2022-12-13T22:38:53.123Z,100.00
2022-12-13T22:42:55.983Z,100.00
2022-12-13T22:46:58.944Z,100.00
2022-12-13T22:51:09.037Z,100.00
2022-12-13T22:55:12.672Z,100.00
2022-12-13T22:59:15.598Z,100.00
2022-12-13T23:03:18.590Z,100.00
2022-12-13T23:07:22.987Z,100.00
2022-12-13T23:11:44.227Z,100.00
2022-12-13T23:15:49.525Z,100.00
2022-12-13T23:19:53.154Z,100.00
2022-12-13T23:24:00.238Z,100.00
2022-12-13T23:28:03.304Z,100.00
2022-12-13T23:32:06.454Z,100.00
2022-12-13T23:36:12.540Z,100.00
2022-12-13T23:40:17.880Z,100.00
2022-12-13T23:44:20.809Z,100.00
2022-12-13T23:48:27.061Z,100.00
2022-12-13T23:52:30.223Z,100.00
2022-12-13T23:56:34.937Z,100.00
